sensor_id;sensor_type;location;lat;lon;timestamp;pressure;altitude;pressure_sealevel;temperature;humidity
20003;BME280;10162;41.600;23.806;2023-02-18T00:00:38;96050.03;;;-0.54;95.05
20003;BME280;10162;41.600;23.806;2023-02-18T00:07:03;96034.41;;;-0.63;95.99
20003;BME280;10162;41.600;23.806;2023-02-18T00:16:43;96061.59;;;-0.35;95.37
20003;BME280;10162;41.600;23.806;2023-02-18T00:27:00;96026.50;;;-1.11;97.15
20003;BME280;10162;41.600;23.806;2023-02-18T00:36:34;96018.38;;;-0.67;99.11
20003;BME280;10162;41.600;23.806;2023-02-18T00:39:06;95987.28;;;-0.75;98.04
20003;BME280;10162;41.600;23.806;2023-02-18T00:41:38;95997.25;;;-0.83;96.98
20003;BME280;10162;41.600;23.806;2023-02-18T00:48:24;95998.81;;;-0.80;97.38
20003;BME280;10162;41.600;23.806;2023-02-18T00:58:00;96028.66;;;-0.67;95.02
20003;BME280;10162;41.600;23.806;2023-02-18T01:16:10;95996.63;;;-1.50;98.02
20003;BME280;10162;41.600;23.806;2023-02-18T01:18:39;95985.66;;;-1.27;96.62
20003;BME280;10162;41.600;23.806;2023-02-18T01:21:06;95991.38;;;-1.61;98.13
20003;BME280;10162;41.600;23.806;2023-02-18T01:27:36;95991.91;;;-1.31;100.00
20003;BME280;10162;41.600;23.806;2023-02-18T01:41:24;95935.78;;;-1.48;100.00
20003;BME280;10162;41.600;23.806;2023-02-18T01:47:53;95981.63;;;-1.56;100.00
20003;BME280;10162;41.600;23.806;2023-02-18T01:50:19;95953.84;;;-1.37;99.95
20003;BME280;10162;41.600;23.806;2023-02-18T01:56:45;95966.47;;;-1.34;98.63
20003;BME280;10162;41.600;23.806;2023-02-18T01:59:19;95928.97;;;-1.99;100.00
20003;BME280;10162;41.600;23.806;2023-02-18T02:01:47;95923.78;;;-1.73;100.00
20003;BME280;10162;41.600;23.806;2023-02-18T02:04:25;95935.16;;;-1.64;99.05
20003;BME280;10162;41.600;23.806;2023-02-18T02:06:51;95957.06;;;-1.85;99.48
20003;BME280;10162;41.600;23.806;2023-02-18T02:09:27;95923.59;;;-2.09;100.00
20003;BME280;10162;41.600;23.806;2023-02-18T02:12:11;95945.81;;;-1.83;99.49
20003;BME280;10162;41.600;23.806;2023-02-18T02:38:17;95950.31;;;-1.74;100.00
20003;BME280;10162;41.600;23.806;2023-02-18T02:52:38;95973.41;;;-2.54;100.00
20003;BME280;10162;41.600;23.806;2023-02-18T02:55:17;95950.38;;;-2.00;100.00
20003;BME280;10162;41.600;23.806;2023-02-18T02:57:56;95973.16;;;-2.23;100.00
20003;BME280;10162;41.600;23.806;2023-02-18T03:10:45;95921.16;;;-2.37;100.00
20003;BME280;10162;41.600;23.806;2023-02-18T03:17:16;95938.22;;;-2.24;100.00
20003;BME280;10162;41.600;23.806;2023-02-18T03:27:58;95965.28;;;-1.80;100.00
20003;BME280;10162;41.600;23.806;2023-02-18T03:30:42;95930.56;;;-2.38;100.00
20003;BME280;10162;41.600;23.806;2023-02-18T03:53:38;95963.66;;;-2.08;100.00
20003;BME280;10162;41.600;23.806;2023-02-18T03:56:05;95956.72;;;-2.06;100.00
20003;BME280;10162;41.600;23.806;2023-02-18T03:58:34;95962.69;;;-2.46;100.00
20003;BME280;10162;41.600;23.806;2023-02-18T04:01:00;95918.00;;;-2.55;100.00
20003;BME280;10162;41.600;23.806;2023-02-18T04:07:29;95930.78;;;-2.55;100.00
20003;BME280;10162;41.600;23.806;2023-02-18T04:26:26;95916.53;;;-2.45;100.00
20003;BME280;10162;41.600;23.806;2023-02-18T04:29:07;95930.25;;;-2.60;100.00
20003;BME280;10162;41.600;23.806;2023-02-18T04:34:49;95962.78;;;-3.03;100.00
20003;BME280;10162;41.600;23.806;2023-02-18T04:48:12;95951.72;;;-3.04;100.00
20003;BME280;10162;41.600;23.806;2023-02-18T04:50:38;95970.53;;;-2.90;100.00
20003;BME280;10162;41.600;23.806;2023-02-18T04:57:01;95975.56;;;-3.03;100.00
20003;BME280;10162;41.600;23.806;2023-02-18T05:06:31;95966.75;;;-2.71;100.00
20003;BME280;10162;41.600;23.806;2023-02-18T05:08:57;95978.91;;;-2.60;100.00
20003;BME280;10162;41.600;23.806;2023-02-18T05:11:23;95992.19;;;-2.68;100.00
20003;BME280;10162;41.600;23.806;2023-02-18T05:17:43;95981.13;;;-2.68;100.00
20003;BME280;10162;41.600;23.806;2023-02-18T05:20:10;95997.31;;;-2.68;100.00
20003;BME280;10162;41.600;23.806;2023-02-18T05:26:52;95974.81;;;-2.63;100.00
20003;BME280;10162;41.600;23.806;2023-02-18T05:30:12;95999.59;;;-2.36;100.00
20003;BME280;10162;41.600;23.806;2023-02-18T05:36:36;96001.31;;;-2.64;100.00
20003;BME280;10162;41.600;23.806;2023-02-18T05:39:13;96006.66;;;-2.40;100.00
20003;BME280;10162;41.600;23.806;2023-02-18T05:46:09;95999.16;;;-2.02;100.00
20003;BME280;10162;41.600;23.806;2023-02-18T05:48:35;95997.66;;;-2.19;100.00
20003;BME280;10162;41.600;23.806;2023-02-18T05:51:01;96005.41;;;-1.93;100.00
20003;BME280;10162;41.600;23.806;2023-02-18T05:57:20;96010.75;;;-1.96;100.00
20003;BME280;10162;41.600;23.806;2023-02-18T05:59:49;95998.84;;;-2.24;100.00
20003;BME280;10162;41.600;23.806;2023-02-18T06:06:10;96019.47;;;-1.47;100.00
20003;BME280;10162;41.600;23.806;2023-02-18T06:08:39;96010.22;;;-1.10;100.00
20003;BME280;10162;41.600;23.806;2023-02-18T06:41:59;96030.94;;;0.11;96.86
20003;BME280;10162;41.600;23.806;2023-02-18T06:45:14;96019.03;;;0.10;98.07
20003;BME280;10162;41.600;23.806;2023-02-18T06:48:53;96026.00;;;0.31;97.79
20003;BME280;10162;41.600;23.806;2023-02-18T07:39:05;96031.50;;;2.92;86.89
20003;BME280;10162;41.600;23.806;2023-02-18T07:42:31;96028.81;;;3.45;83.81
20003;BME280;10162;41.600;23.806;2023-02-18T07:45:25;96008.69;;;2.98;84.41
20003;BME280;10162;41.600;23.806;2023-02-18T07:48:20;96016.50;;;2.66;85.75
20003;BME280;10162;41.600;23.806;2023-02-18T07:51:20;96012.34;;;2.74;85.28
20003;BME280;10162;41.600;23.806;2023-02-18T08:08:46;95987.94;;;4.57;78.04
20003;BME280;10162;41.600;23.806;2023-02-18T08:11:27;95965.78;;;5.02;75.53
20003;BME280;10162;41.600;23.806;2023-02-18T08:14:20;95960.28;;;5.61;72.44
20003;BME280;10162;41.600;23.806;2023-02-18T08:16:49;95959.06;;;5.92;70.44
20003;BME280;10162;41.600;23.806;2023-02-18T08:19:17;95972.97;;;6.18;67.69
20003;BME280;10162;41.600;23.806;2023-02-18T08:21:43;95953.75;;;6.29;66.98
20003;BME280;10162;41.600;23.806;2023-02-18T08:32:07;95952.72;;;8.11;59.48
20003;BME280;10162;41.600;23.806;2023-02-18T08:34:33;95978.91;;;8.09;58.06
20003;BME280;10162;41.600;23.806;2023-02-18T08:37:01;95971.97;;;8.26;61.23
20003;BME280;10162;41.600;23.806;2023-02-18T08:39:34;95933.03;;;8.08;60.93
20003;BME280;10162;41.600;23.806;2023-02-18T08:42:01;95945.13;;;7.41;61.01
20003;BME280;10162;41.600;23.806;2023-02-18T08:44:36;95943.06;;;7.45;61.30
20003;BME280;10162;41.600;23.806;2023-02-18T08:47:15;95934.41;;;6.85;63.23
20003;BME280;10162;41.600;23.806;2023-02-18T08:49:52;95933.06;;;6.55;65.73
20003;BME280;10162;41.600;23.806;2023-02-18T08:52:52;95958.13;;;6.64;65.24
20003;BME280;10162;41.600;23.806;2023-02-18T08:55:19;95936.59;;;6.01;66.50
20003;BME280;10162;41.600;23.806;2023-02-18T08:57:48;95940.38;;;6.06;66.24
20003;BME280;10162;41.600;23.806;2023-02-18T09:00:15;95943.66;;;6.08;66.01
20003;BME280;10162;41.600;23.806;2023-02-18T09:02:50;95948.69;;;6.10;66.24
20003;BME280;10162;41.600;23.806;2023-02-18T09:05:18;95924.22;;;6.12;66.38
20003;BME280;10162;41.600;23.806;2023-02-18T09:07:44;95933.69;;;6.04;65.96
20003;BME280;10162;41.600;23.806;2023-02-18T09:10:11;95922.53;;;6.03;66.39
20003;BME280;10162;41.600;23.806;2023-02-18T09:12:40;95933.84;;;6.55;65.81
20003;BME280;10162;41.600;23.806;2023-02-18T09:15:29;95928.47;;;6.31;66.05
20003;BME280;10162;41.600;23.806;2023-02-18T09:17:56;95922.88;;;6.44;66.28
20003;BME280;10162;41.600;23.806;2023-02-18T09:20:23;95926.28;;;6.62;66.43
20003;BME280;10162;41.600;23.806;2023-02-18T09:23:33;95917.06;;;6.68;65.34
20003;BME280;10162;41.600;23.806;2023-02-18T09:26:32;95934.09;;;6.88;65.38
20003;BME280;10162;41.600;23.806;2023-02-18T09:29:20;95933.31;;;6.95;65.06
20003;BME280;10162;41.600;23.806;2023-02-18T09:31:55;95898.38;;;7.24;63.86
20003;BME280;10162;41.600;23.806;2023-02-18T09:46:09;95884.81;;;7.80;57.12
20003;BME280;10162;41.600;23.806;2023-02-18T09:48:43;95897.94;;;7.62;57.14
20003;BME280;10162;41.600;23.806;2023-02-18T09:51:16;95861.53;;;7.86;56.59
20003;BME280;10162;41.600;23.806;2023-02-18T09:54:07;95907.03;;;8.89;53.96
20003;BME280;10162;41.600;23.806;2023-02-18T09:56:36;95886.03;;;8.83;52.87
20003;BME280;10162;41.600;23.806;2023-02-18T09:59:05;95892.38;;;8.72;50.84
20003;BME280;10162;41.600;23.806;2023-02-18T10:04:44;95861.63;;;9.31;52.32
20003;BME280;10162;41.600;23.806;2023-02-18T10:07:33;95875.78;;;9.75;52.12
20003;BME280;10162;41.600;23.806;2023-02-18T10:10:15;95851.97;;;9.70;51.42
20003;BME280;10162;41.600;23.806;2023-02-18T10:15:39;95881.50;;;9.71;51.94
20003;BME280;10162;41.600;23.806;2023-02-18T10:18:34;95877.72;;;9.34;53.04
20003;BME280;10162;41.600;23.806;2023-02-18T10:21:08;95886.66;;;9.56;51.85
20003;BME280;10162;41.600;23.806;2023-02-18T10:23:40;95863.84;;;9.50;51.23
20003;BME280;10162;41.600;23.806;2023-02-18T10:26:14;95866.16;;;10.52;49.14
20003;BME280;10162;41.600;23.806;2023-02-18T10:28:42;95838.63;;;10.79;47.88
20003;BME280;10162;41.600;23.806;2023-02-18T10:31:12;95852.94;;;10.83;48.00
20003;BME280;10162;41.600;23.806;2023-02-18T10:37:07;95825.38;;;10.81;48.71
20003;BME280;10162;41.600;23.806;2023-02-18T10:50:24;95825.34;;;13.03;43.48
20003;BME280;10162;41.600;23.806;2023-02-18T10:53:11;95788.72;;;12.95;42.50
20003;BME280;10162;41.600;23.806;2023-02-18T10:55:45;95801.72;;;12.47;44.17
20003;BME280;10162;41.600;23.806;2023-02-18T11:00:56;95787.94;;;12.38;41.80
20003;BME280;10162;41.600;23.806;2023-02-18T11:03:25;95782.44;;;12.33;43.51
20003;BME280;10162;41.600;23.806;2023-02-18T11:05:55;95776.47;;;11.97;43.11
20003;BME280;10162;41.600;23.806;2023-02-18T11:08:26;95789.38;;;11.63;44.17
20003;BME280;10162;41.600;23.806;2023-02-18T11:10:54;95782.59;;;11.32;43.34
20003;BME280;10162;41.600;23.806;2023-02-18T11:13:27;95778.06;;;11.41;39.38
20003;BME280;10162;41.600;23.806;2023-02-18T11:16:04;95782.22;;;11.35;41.10
20003;BME280;10162;41.600;23.806;2023-02-18T11:18:36;95788.00;;;12.02;39.61
20003;BME280;10162;41.600;23.806;2023-02-18T11:21:50;95771.63;;;12.43;40.03
20003;BME280;10162;41.600;23.806;2023-02-18T11:23:54;95771.47;;;12.79;38.20
20003;BME280;10162;41.600;23.806;2023-02-18T11:26:27;95784.19;;;13.10;37.28
20003;BME280;10162;41.600;23.806;2023-02-18T11:29:07;95766.00;;;13.56;37.25
20003;BME280;10162;41.600;23.806;2023-02-18T11:31:43;95740.84;;;13.20;38.33
20003;BME280;10162;41.600;23.806;2023-02-18T11:34:22;95755.50;;;12.74;39.10
20003;BME280;10162;41.600;23.806;2023-02-18T11:36:51;95768.72;;;12.94;38.96
20003;BME280;10162;41.600;23.806;2023-02-18T11:39:21;95742.03;;;13.18;38.36
20003;BME280;10162;41.600;23.806;2023-02-18T11:42:00;95746.69;;;13.90;36.15
20003;BME280;10162;41.600;23.806;2023-02-18T11:44:37;95751.38;;;14.01;36.31
20003;BME280;10162;41.600;23.806;2023-02-18T11:47:08;95738.81;;;14.03;36.06
20003;BME280;10162;41.600;23.806;2023-02-18T11:50:02;95738.44;;;14.06;35.76
20003;BME280;10162;41.600;23.806;2023-02-18T11:52:41;95728.53;;;14.54;34.79
20003;BME280;10162;41.600;23.806;2023-02-18T11:57:59;95733.66;;;15.13;33.20
20003;BME280;10162;41.600;23.806;2023-02-18T12:00:43;95712.41;;;15.08;33.93
20003;BME280;10162;41.600;23.806;2023-02-18T12:03:39;95714.91;;;15.41;31.43
20003;BME280;10162;41.600;23.806;2023-02-18T12:06:21;95707.19;;;14.95;32.60
20003;BME280;10162;41.600;23.806;2023-02-18T12:08:52;95687.44;;;14.27;34.28
20003;BME280;10162;41.600;23.806;2023-02-18T12:11:32;95693.31;;;14.16;34.31
20003;BME280;10162;41.600;23.806;2023-02-18T12:14:01;95698.59;;;14.22;33.38
20003;BME280;10162;41.600;23.806;2023-02-18T12:16:35;95699.00;;;13.99;33.80
20003;BME280;10162;41.600;23.806;2023-02-18T12:19:22;95694.34;;;13.88;33.05
20003;BME280;10162;41.600;23.806;2023-02-18T12:22:19;95689.47;;;13.92;33.29
20003;BME280;10162;41.600;23.806;2023-02-18T12:42:00;95669.66;;;14.29;33.32
20003;BME280;10162;41.600;23.806;2023-02-18T12:44:40;95666.81;;;14.30;33.53
20003;BME280;10162;41.600;23.806;2023-02-18T12:47:25;95661.16;;;14.20;33.24
20003;BME280;10162;41.600;23.806;2023-02-18T12:50:26;95641.13;;;14.19;32.59
20003;BME280;10162;41.600;23.806;2023-02-18T13:15:18;95618.06;;;15.37;30.97
20003;BME280;10162;41.600;23.806;2023-02-18T13:17:47;95616.63;;;15.03;30.75
20003;BME280;10162;41.600;23.806;2023-02-18T13:20:35;95611.59;;;14.95;32.03
20003;BME280;10162;41.600;23.806;2023-02-18T13:23:17;95587.22;;;14.68;31.75
20003;BME280;10162;41.600;23.806;2023-02-18T13:25:45;95618.84;;;14.48;32.16
20003;BME280;10162;41.600;23.806;2023-02-18T13:33:50;95614.38;;;15.06;30.90
20003;BME280;10162;41.600;23.806;2023-02-18T13:39:07;95595.16;;;15.37;31.01
20003;BME280;10162;41.600;23.806;2023-02-18T13:41:41;95604.94;;;15.61;29.59
20003;BME280;10162;41.600;23.806;2023-02-18T13:46:55;95613.53;;;16.25;29.62
20003;BME280;10162;41.600;23.806;2023-02-18T13:49:33;95599.34;;;16.44;29.42
20003;BME280;10162;41.600;23.806;2023-02-18T13:52:01;95605.16;;;16.89;29.20
20003;BME280;10162;41.600;23.806;2023-02-18T13:54:57;95607.81;;;16.71;28.53
20003;BME280;10162;41.600;23.806;2023-02-18T13:57:26;95607.50;;;15.75;28.91
20003;BME280;10162;41.600;23.806;2023-02-18T14:00:02;95601.00;;;15.77;29.67
20003;BME280;10162;41.600;23.806;2023-02-18T14:02:33;95605.09;;;16.59;28.84
20003;BME280;10162;41.600;23.806;2023-02-18T14:26:09;95570.22;;;15.71;30.01
20003;BME280;10162;41.600;23.806;2023-02-18T14:42:23;95573.94;;;16.06;31.10
20003;BME280;10162;41.600;23.806;2023-02-18T14:50:19;95553.97;;;16.53;29.60
20003;BME280;10162;41.600;23.806;2023-02-18T14:52:52;95579.63;;;16.28;31.02
20003;BME280;10162;41.600;23.806;2023-02-18T14:55:27;95574.06;;;15.93;30.40
20003;BME280;10162;41.600;23.806;2023-02-18T15:00:46;95552.94;;;15.19;32.98
20003;BME280;10162;41.600;23.806;2023-02-18T15:03:18;95574.81;;;15.44;31.06
20003;BME280;10162;41.600;23.806;2023-02-18T15:05:47;95558.91;;;15.01;31.73
20003;BME280;10162;41.600;23.806;2023-02-18T15:08:23;95559.91;;;15.00;34.36
20003;BME280;10162;41.600;23.806;2023-02-18T15:11:05;95569.28;;;14.45;34.21
20003;BME280;10162;41.600;23.806;2023-02-18T15:13:41;95548.78;;;14.98;33.42
20003;BME280;10162;41.600;23.806;2023-02-18T15:16:15;95560.69;;;15.07;34.04
20003;BME280;10162;41.600;23.806;2023-02-18T15:18:53;95553.97;;;14.16;35.62
20003;BME280;10162;41.600;23.806;2023-02-18T15:21:31;95559.28;;;13.63;36.92
20003;BME280;10162;41.600;23.806;2023-02-18T15:26:48;95538.28;;;13.37;36.07
20003;BME280;10162;41.600;23.806;2023-02-18T15:29:24;95546.03;;;12.77;39.62
20003;BME280;10162;41.600;23.806;2023-02-18T15:31:52;95541.88;;;12.49;39.34
20003;BME280;10162;41.600;23.806;2023-02-18T15:36:52;95547.19;;;12.62;37.61
20003;BME280;10162;41.600;23.806;2023-02-18T15:39:17;95542.25;;;11.98;40.97
20003;BME280;10162;41.600;23.806;2023-02-18T15:41:44;95544.88;;;11.70;41.25
20003;BME280;10162;41.600;23.806;2023-02-18T15:44:23;95566.13;;;11.82;40.13
20003;BME280;10162;41.600;23.806;2023-02-18T15:46:51;95557.97;;;11.42;40.99
20003;BME280;10162;41.600;23.806;2023-02-18T15:49:20;95555.97;;;11.23;41.68
20003;BME280;10162;41.600;23.806;2023-02-18T15:51:48;95557.59;;;11.24;41.15
20003;BME280;10162;41.600;23.806;2023-02-18T15:54:21;95560.09;;;10.90;42.67
20003;BME280;10162;41.600;23.806;2023-02-18T15:56:54;95572.41;;;10.60;43.64
20003;BME280;10162;41.600;23.806;2023-02-18T15:59:26;95541.44;;;10.57;43.27
20003;BME280;10162;41.600;23.806;2023-02-18T16:02:20;95583.69;;;10.60;43.72
20003;BME280;10162;41.600;23.806;2023-02-18T16:04:56;95557.34;;;10.41;43.84
20003;BME280;10162;41.600;23.806;2023-02-18T16:07:27;95576.16;;;10.87;42.70
20003;BME280;10162;41.600;23.806;2023-02-18T16:10:52;95575.09;;;10.30;44.67
20003;BME280;10162;41.600;23.806;2023-02-18T16:13:12;95554.09;;;10.74;42.57
20003;BME280;10162;41.600;23.806;2023-02-18T16:15:41;95565.50;;;10.52;43.50
20003;BME280;10162;41.600;23.806;2023-02-18T16:18:21;95572.66;;;10.80;42.71
20003;BME280;10162;41.600;23.806;2023-02-18T16:21:01;95576.22;;;10.93;42.02
20003;BME280;10162;41.600;23.806;2023-02-18T16:23:42;95561.63;;;10.63;42.51
20003;BME280;10162;41.600;23.806;2023-02-18T16:32:01;95564.00;;;9.99;44.55
20003;BME280;10162;41.600;23.806;2023-02-18T16:34:27;95587.34;;;10.81;42.06
20003;BME280;10162;41.600;23.806;2023-02-18T16:36:53;95582.38;;;10.86;41.10
20003;BME280;10162;41.600;23.806;2023-02-18T16:39:37;95604.78;;;11.09;41.01
20003;BME280;10162;41.600;23.806;2023-02-18T16:42:08;95603.28;;;11.22;40.79
20003;BME280;10162;41.600;23.806;2023-02-18T16:44:35;95586.97;;;10.04;44.01
20003;BME280;10162;41.600;23.806;2023-02-18T16:47:01;95605.88;;;9.53;46.07
20003;BME280;10162;41.600;23.806;2023-02-18T16:49:27;95613.97;;;9.44;46.36
20003;BME280;10162;41.600;23.806;2023-02-18T16:51:54;95610.63;;;8.59;47.96
20003;BME280;10162;41.600;23.806;2023-02-18T16:54:23;95579.13;;;8.68;47.39
20003;BME280;10162;41.600;23.806;2023-02-18T16:56:49;95601.03;;;8.51;48.85
20003;BME280;10162;41.600;23.806;2023-02-18T16:59:19;95600.28;;;8.35;49.47
20003;BME280;10162;41.600;23.806;2023-02-18T17:01:45;95605.47;;;7.71;50.73
20003;BME280;10162;41.600;23.806;2023-02-18T17:04:26;95560.28;;;7.72;50.51
20003;BME280;10162;41.600;23.806;2023-02-18T17:06:53;95619.69;;;8.16;50.09
20003;BME280;10162;41.600;23.806;2023-02-18T17:09:23;95597.47;;;7.81;50.80
20003;BME280;10162;41.600;23.806;2023-02-18T17:12:04;95617.75;;;8.10;50.55
20003;BME280;10162;41.600;23.806;2023-02-18T17:14:40;95583.13;;;7.93;50.63
20003;BME280;10162;41.600;23.806;2023-02-18T17:17:10;95609.38;;;8.47;49.86
20003;BME280;10162;41.600;23.806;2023-02-18T17:19:39;95614.34;;;8.56;50.01
20003;BME280;10162;41.600;23.806;2023-02-18T17:22:04;95593.63;;;8.24;50.21
20003;BME280;10162;41.600;23.806;2023-02-18T17:24:31;95590.13;;;8.01;51.68
20003;BME280;10162;41.600;23.806;2023-02-18T17:26:57;95610.66;;;7.87;52.21
20003;BME280;10162;41.600;23.806;2023-02-18T17:29:34;95598.19;;;6.94;55.25
20003;BME280;10162;41.600;23.806;2023-02-18T17:32:39;95623.16;;;6.71;57.12
20003;BME280;10162;41.600;23.806;2023-02-18T17:35:25;95623.69;;;7.06;56.18
20003;BME280;10162;41.600;23.806;2023-02-18T17:38:00;95583.91;;;6.98;55.65
20003;BME280;10162;41.600;23.806;2023-02-18T17:47:05;95635.66;;;8.13;53.47
20003;BME280;10162;41.600;23.806;2023-02-18T17:53:23;95594.00;;;7.17;55.31
20003;BME280;10162;41.600;23.806;2023-02-18T17:59:04;95627.28;;;7.54;55.67
20003;BME280;10162;41.600;23.806;2023-02-18T18:01:51;95603.78;;;6.57;58.03
20003;BME280;10162;41.600;23.806;2023-02-18T18:04:41;95637.72;;;7.38;56.29
20003;BME280;10162;41.600;23.806;2023-02-18T18:07:19;95631.66;;;7.78;54.60
20003;BME280;10162;41.600;23.806;2023-02-18T18:10:27;95604.38;;;7.33;55.44
20003;BME280;10162;41.600;23.806;2023-02-18T18:16:54;95614.94;;;7.48;55.02
20003;BME280;10162;41.600;23.806;2023-02-18T18:19:39;95635.09;;;7.78;54.03
20003;BME280;10162;41.600;23.806;2023-02-18T18:22:45;95643.72;;;7.46;55.02
20003;BME280;10162;41.600;23.806;2023-02-18T18:25:49;95613.00;;;7.34;54.75
20003;BME280;10162;41.600;23.806;2023-02-18T18:28:45;95648.06;;;6.97;57.32
20003;BME280;10162;41.600;23.806;2023-02-18T18:34:45;95632.63;;;6.88;58.58
20003;BME280;10162;41.600;23.806;2023-02-18T18:37:36;95607.97;;;6.42;59.53
20003;BME280;10162;41.600;23.806;2023-02-18T18:40:06;95628.47;;;6.61;58.96
20003;BME280;10162;41.600;23.806;2023-02-18T18:42:45;95625.75;;;6.79;59.45
20003;BME280;10162;41.600;23.806;2023-02-18T18:49:10;95644.00;;;6.03;62.52
20003;BME280;10162;41.600;23.806;2023-02-18T18:51:38;95608.91;;;5.99;61.79
20003;BME280;10162;41.600;23.806;2023-02-18T18:54:14;95649.41;;;6.17;62.21
20003;BME280;10162;41.600;23.806;2023-02-18T18:56:42;95642.91;;;5.88;63.14
20003;BME280;10162;41.600;23.806;2023-02-18T18:59:34;95648.50;;;6.35;61.58
20003;BME280;10162;41.600;23.806;2023-02-18T19:02:51;95653.22;;;6.31;62.53
20003;BME280;10162;41.600;23.806;2023-02-18T19:05:42;95650.38;;;6.16;63.21
20003;BME280;10162;41.600;23.806;2023-02-18T19:08:26;95638.19;;;6.09;62.70
20003;BME280;10162;41.600;23.806;2023-02-18T19:11:09;95654.19;;;6.04;63.23
20003;BME280;10162;41.600;23.806;2023-02-18T19:13:51;95646.03;;;6.25;63.43
20003;BME280;10162;41.600;23.806;2023-02-18T19:16:18;95639.75;;;6.36;62.54
20003;BME280;10162;41.600;23.806;2023-02-18T19:22:50;95627.31;;;6.13;62.58
20003;BME280;10162;41.600;23.806;2023-02-18T19:25:25;95632.16;;;6.08;62.69
20003;BME280;10162;41.600;23.806;2023-02-18T19:28:16;95629.59;;;5.65;64.35
20003;BME280;10162;41.600;23.806;2023-02-18T19:30:45;95612.75;;;5.43;65.09
20003;BME280;10162;41.600;23.806;2023-02-18T19:37:57;95639.22;;;5.47;65.99
20003;BME280;10162;41.600;23.806;2023-02-18T19:40:29;95669.56;;;5.54;66.17
20003;BME280;10162;41.600;23.806;2023-02-18T19:50:01;95685.78;;;5.03;69.60
20003;BME280;10162;41.600;23.806;2023-02-18T20:27:23;95684.47;;;4.54;72.42
20003;BME280;10162;41.600;23.806;2023-02-18T20:34:56;95681.94;;;6.30;71.12
20003;BME280;10162;41.600;23.806;2023-02-18T20:37:22;95660.13;;;6.22;70.13
20003;BME280;10162;41.600;23.806;2023-02-18T20:40:17;95675.41;;;6.00;71.64
20003;BME280;10162;41.600;23.806;2023-02-18T20:54:55;95665.44;;;6.47;68.61
20003;BME280;10162;41.600;23.806;2023-02-18T20:58:28;95670.78;;;5.86;71.10
20003;BME280;10162;41.600;23.806;2023-02-18T21:16:30;95689.94;;;4.96;75.46
20003;BME280;10162;41.600;23.806;2023-02-18T21:23:58;95693.88;;;5.00;74.85
20003;BME280;10162;41.600;23.806;2023-02-18T21:27:13;95700.38;;;4.59;76.50
20003;BME280;10162;41.600;23.806;2023-02-18T22:47:10;95682.44;;;2.97;86.09
20003;BME280;10162;41.600;23.806;2023-02-18T23:03:40;95669.66;;;2.86;87.06
20003;BME280;10162;41.600;23.806;2023-02-18T23:37:38;95649.16;;;2.25;90.98
20003;BME280;10162;41.600;23.806;2023-02-18T23:44:27;95638.34;;;2.01;91.32
